Aérodrome :
LOGIN :

S'inscrire | Disclaimer

   EN    FR    IT 

 










Légende :    VFR   VFR Marginal   IFR   IFR Intensif   IFR Très Intensif
Visi : 
Plafond : 
>= 8 km
>= 3000ft
5 à 8 km
1000 à 3000 ft
1500m à 5 km
500 à 1000 ft
800 à 1500m
200 à 500 ft
< 800m
< 200 ft
Symboles :   Orages  Brouillard  Fortes neiges  Fortes précipitations  Vent > 20 kt
SIGMETs :   Divers  Orages  Givrage  Turbulence  Onde Orograph.  Cendres Volcan.






- Altitude de l'aérodrome : 1300 ft
- Code IATA : LIG


LFBL - Limoges

DERNIER METAR :
  • 202100Z AUTO 24008KT 9999 BKN011 OVC016 08/07 Q1027 TEMPO 3000 -RADZ OVC003

METARs EXPIRÉS :
  • 202030Z AUTO 24007KT 220V280 9999 OVC015 08/06 Q1026 TEMPO 3000 -RADZ OVC003
  • 202000Z AUTO 25007KT 210V280 9999 OVC019 09/05 Q1026 TEMPO 3000 -RADZ OVC003
  • 201930Z AUTO 25008KT 220V280 9999 OVC023 09/05 Q1026 TEMPO 3000 -RADZ OVC003
  • 201900Z AUTO 24008KT 210V270 9999 SCT026 OVC033 09/05 Q1025 TEMPO 3000 -RADZ OVC003
  • 201830Z AUTO 24007KT 210V290 9999 OVC032 09/04 Q1025 TEMPO 3000 -RADZ OVC003

TAF AMD TAF LFBL
Valide du 20 à 21h jusqu'au 21 à 18h UTC


202107Z 2021/2118 26010KT 9999 BKN012
TEMPO 2021/2023 OVC007
PROB40
TEMPO 2021/2023 3000 -RADZ OVC003
BECMG 2022/2024 35008KT BKN016
PROB40 2101/2106 4000 BR
PROB30 2102/2105 0800 FG
ATIS : +33 5 55 48 40 37



MET'MAP, la Météo Aéronautique d'un coup d'oeil ! - Copyright ORBIFLY Décembre 2007 - Disclaimer

ORBIFLY MET'MAP TEAM :

Programmation & Développement : Alexandra Zaïnal
Sur une idée originale de : Baudouin d'Aumeries
Assistance à la programmation : Marc-Olivier Méhu
Soutien technique & logistique : Manuel Goepfert

Contact : metmap@orbifly.com




SOURCES & CREDITS :

   NOAA